Decoded Metar for GCLP (LAS PALMAS in SPAIN) (IATA:LPA) | Meteo·Mobile Aviation Weather
aviador You're here:

GCLP Decoded Metar

LAS PALMAS in SPAIN
Report Time2019-03-21 15:00:00
UTC Time2019-03-21 15:33:02
Flight Rules vfr VFR
Wind020° at 23 kt
W.Decomp.*RWY 03: 22.9 kt HW 2 kt LCW
W.Rank020° ranks 3
Current wind is above 020° avg. (18.3)
Visibility9999 m
Phenomena:N/A
Clouds:Few 025 Hf
Expected CloudBase > 3,200 ft AGL from Temp-Dew spread
CeilingNone
Temp21°C (ISA +6)
Dew Point13°C (60% RH)
AAT13.6°C
QNH1015 hPa
Density Alt935 ft
Elevation82 ft
Report Wrong Elevation
Raw Report
GCLP 211500Z 02023KT 350V050 9999 FEW025 21/13 Q1015 NOSIG=

Extra information for GCLP:More info

Metar Taf Metar & Taf Last 4 Metars F.Rules Stats Wind Profile Meteogram Temp Stats Airport Information Weather charts Add Link Nearby VenuesMetar ALERT Operation Metar Decoded Social comments